METAR AND TAF INFORMATION
METAR FOR SAEZ
ADDS - METARS form results

(0053 UTC 24 April 2018)
Data provider http://aviationweather.gov/adds/metars/
 
METAR text: SAEZ 240000Z 13007KT CAVOK 19/17 Q1020 NOSIG
Conditions at: SAEZ (BUENOS AIRES/EZE, AR) observed 0000 UTC 24 April 2018
Temperature: 19.0°C (66°F)
Dewpoint: 17.0°C (63°F) [RH = 88%]
Pressure (altimeter): 30.12 inches Hg (1020.0 mb)
Winds: from the SE (130 degrees) at 8 MPH (7 knots; 3.6 m/s)
Visibility: 6 or more miles (10+ km)
Ceiling: ceiling and visibility are OK
Clouds: unknown
Weather: no significant weather observed at this time

Forecast for: SAEZ (BUENOS AIRES/EZE, AR)
Text: TAF SAEZ 232300Z 2400/2424 13010KT 9999 SCT012 BKN020 TX22/2418Z TN16/2405Z
Forecast period: 0000 to 0300 UTC 24 April 2018
Forecast type: FROM: standard forecast or significant change
Winds: from the SE (130 degrees) at 12 MPH (10 knots; 5.2 m/s)
Visibility: 6 or more miles (10+ km)
Ceiling: 2000 feet AGL
Clouds: scattered clouds at 1200 feet AGL
broken clouds at 2000 feet AGL
Weather: no significant weather forecast for this period
Forecast for: SAEZ (BUENOS AIRES/EZE, AR)
Text: TAF SAEZ 232300Z 2400/2424 13010KT 9999 SCT012 BKN020 TX22/2418Z TN16/2405Z
Forecast period: 0000 to 0300 UTC 24 April 2018
Forecast type: FROM: standard forecast or significant change
Winds: from the SE (130 degrees) at 12 MPH (10 knots; 5.2 m/s)
Visibility: 6 or more miles (10+ km)
Ceiling: 2000 feet AGL
Clouds: scattered clouds at 1200 feet AGL
broken clouds at 2000 feet AGL
Weather: no significant weather forecast for this period
Forecast for: SAEZ (BUENOS AIRES/EZE, AR)
Text: TAF SAEZ 232300Z 2400/2424 13010KT 9999 SCT012 BKN020 TX22/2418Z TN16/2405Z
Forecast period: 0300 to 1200 UTC 24 April 2018
Forecast type: BECOMING: Conditions expected to become as follows by 0600 UTC 24 April 2018
Winds: from the SE (130 degrees) at 12 MPH (10 knots; 5.2 m/s)
Visibility: 1.86 miles (2.99 km)
Ceiling: 600 feet AGL
Clouds: broken clouds at 600 feet AGL
Weather: BR  (mist)
Forecast for: SAEZ (BUENOS AIRES/EZE, AR)
Text: TAF SAEZ 232300Z 2400/2424 13010KT 9999 SCT012 BKN020 TX22/2418Z TN16/2405Z
Forecast period: 0300 to 1200 UTC 24 April 2018
Forecast type: BECOMING: Conditions expected to become as follows by 0600 UTC 24 April 2018
Winds: from the SE (130 degrees) at 12 MPH (10 knots; 5.2 m/s)
Visibility: 1.86 miles (2.99 km)
Ceiling: 600 feet AGL
Clouds: broken clouds at 600 feet AGL
Weather: BR  (mist)
Forecast for: SAEZ (BUENOS AIRES/EZE, AR)
Text: TAF SAEZ 232300Z 2400/2424 13010KT 9999 SCT012 BKN020 TX22/2418Z TN16/2405Z
Forecast period: 0900 to 1000 UTC 24 April 2018
Forecast type: PROBABLE: 40 percent likelihood of the following during this time
Winds: from the ESE (110 degrees) at 3 MPH (3 knots; 1.6 m/s)
Visibility: 0.19 miles (0.31 km)
Ceiling: 200 feet AGL
Clouds: overcast cloud deck at 200 feet AGL
Weather: FG  (fog)
Forecast for: SAEZ (BUENOS AIRES/EZE, AR)
Text: TAF SAEZ 232300Z 2400/2424 13010KT 9999 SCT012 BKN020 TX22/2418Z TN16/2405Z
Forecast period: 0900 to 1000 UTC 24 April 2018
Forecast type: PROBABLE: 40 percent likelihood of the following during this time
Winds: from the ESE (110 degrees) at 3 MPH (3 knots; 1.6 m/s)
Visibility: 0.19 miles (0.31 km)
Ceiling: 200 feet AGL
Clouds: overcast cloud deck at 200 feet AGL
Weather: FG  (fog)
Forecast for: SAEZ (BUENOS AIRES/EZE, AR)
Text: TAF SAEZ 232300Z 2400/2424 13010KT 9999 SCT012 BKN020 TX22/2418Z TN16/2405Z
Forecast period: 1200 to 2000 UTC 24 April 2018
Forecast type: BECOMING: Conditions expected to become as follows by 1400 UTC 24 April 2018
Winds: from the SE (130 degrees) at 12 MPH (10 knots; 5.2 m/s)
Visibility: 6 or more miles (10+ km)
Ceiling: 1500 feet AGL
Clouds: scattered clouds at 800 feet AGL
broken clouds at 1500 feet AGL
Weather: NSW  (no significant weather)
Forecast for: SAEZ (BUENOS AIRES/EZE, AR)
Text: TAF SAEZ 232300Z 2400/2424 13010KT 9999 SCT012 BKN020 TX22/2418Z TN16/2405Z
Forecast period: 1200 to 2000 UTC 24 April 2018
Forecast type: BECOMING: Conditions expected to become as follows by 1400 UTC 24 April 2018
Winds: from the SE (130 degrees) at 12 MPH (10 knots; 5.2 m/s)
Visibility: 6 or more miles (10+ km)
Ceiling: 1500 feet AGL
Clouds: scattered clouds at 800 feet AGL
broken clouds at 1500 feet AGL
Weather: NSW  (no significant weather)
Forecast for: SAEZ (BUENOS AIRES/EZE, AR)
Text: TAF SAEZ 232300Z 2400/2424 13010KT 9999 SCT012 BKN020 TX22/2418Z TN16/2405Z
Forecast period: 1300 to 1700 UTC 24 April 2018
Forecast type: TEMPORARY: The following changes expected for less than half the time period
Visibility: 4 miles (6 km)
Ceiling: 1200 feet AGL
Clouds: scattered clouds at 700 feet AGL
overcast cloud deck at 1200 feet AGL
Weather: DZ BR  (drizzle, mist)
Forecast for: SAEZ (BUENOS AIRES/EZE, AR)
Text: TAF SAEZ 232300Z 2400/2424 13010KT 9999 SCT012 BKN020 TX22/2418Z TN16/2405Z
Forecast period: 1300 to 1700 UTC 24 April 2018
Forecast type: TEMPORARY: The following changes expected for less than half the time period
Visibility: 4 miles (6 km)
Ceiling: 1200 feet AGL
Clouds: scattered clouds at 700 feet AGL
overcast cloud deck at 1200 feet AGL
Weather: DZ BR  (drizzle, mist)
Forecast for: SAEZ (BUENOS AIRES/EZE, AR)
Text: TAF SAEZ 232300Z 2400/2424 13010KT 9999 SCT012 BKN020 TX22/2418Z TN16/2405Z
Forecast period: 2000 UTC 24 April 2018 to 0000 UTC 25 April 2018
Forecast type: BECOMING: Conditions expected to become as follows by 2200 UTC 24 April 2018
Winds: from the E (90 degrees) at 6 MPH (5 knots; 2.6 m/s)
Visibility: 4 miles (7 km)
Ceiling: 2000 feet AGL
Clouds: scattered clouds at 1200 feet AGL
overcast cloud deck at 2000 feet AGL
Weather: DZ BR  (drizzle, mist)
Forecast for: SAEZ (BUENOS AIRES/EZE, AR)
Text: TAF SAEZ 232300Z 2400/2424 13010KT 9999 SCT012 BKN020 TX22/2418Z TN16/2405Z
Forecast period: 2000 UTC 24 April 2018 to 0000 UTC 25 April 2018
Forecast type: BECOMING: Conditions expected to become as follows by 2200 UTC 24 April 2018
Winds: from the E (90 degrees) at 6 MPH (5 knots; 2.6 m/s)
Visibility: 4 miles (7 km)
Ceiling: 2000 feet AGL
Clouds: scattered clouds at 1200 feet AGL
overcast cloud deck at 2000 feet AGL
Weather: DZ BR  (drizzle, mist)

 AIRPORT MAP

 RUNWAY INFORMATION
Runway 11 Runway length 10827 ft Runway width 197 ft
Runway elevation 62 ft Runway displaced threshold 0 ft Runway heading 102
Runway 29 Runway length 10827 ft Runway width 197 ft
Runway elevation 66 ft Runway displaced threshold 0 ft Runway heading 282
Runway 17 Runway length 10187 ft Runway width 148 ft
Runway elevation 62 ft Runway displaced threshold 0 ft Runway heading 164
Runway 35 Runway length 10187 ft Runway width 148 ft
Runway elevation 67 ft Runway displaced threshold 984 ft Runway heading 344

 AIRPORT FREQUENCIES
Type A/D Name BAIRES CON Frequency 124.9 MHZ
Type APP Name EZEIZA APP Frequency 119.9 MHZ
Type ATIS Name ATIS Frequency 127.8 MHZ
Type GCCD Name GND/CLNC D Frequency 121.75 MHZ
Type TWR Name EZEIZA TWR Frequency 118.6 MHZ

 AIRPORT NEAR NAVIGATION AIDS
Type VOR-DME Name Ezeiza Frequency 116500 KHZ